Time,TemperatureF,DewpointF,PressureIn,WindDirection,WindDirectionDegrees,WindSpeedMPH,WindSpeedGustMPH,Humidity,HourlyPrecipIn,Conditions,Clouds,dailyrainin,SolarRadiationWatts/m^2,SoftwareType,DateUTC
2013-07-18 00:01:00,86.0,52.0,-100.00,WNW,287,5.0,19.0,31,0.00,,,0.00,1.000000,,2013-07-18 07:01:00,
2013-07-18 04:32:00,82.0,51.0,-100.00,ENE,66,6.0,15.0,34,-99.99,,,0.00,1.000000,,2013-07-18 11:32:00,
2013-07-18 04:43:00,82.0,51.0,-100.00,ENE,66,6.0,15.0,34,-99.99,,,0.00,1.000000,,2013-07-18 11:43:00,
2013-07-18 04:52:00,82.0,51.0,-100.00,ENE,66,6.0,15.0,34,-99.99,,,0.00,1.000000,,2013-07-18 11:52:00,
2013-07-18 05:01:00,82.0,51.0,-100.00,ENE,66,6.0,15.0,34,-99.99,,,0.00,1.000000,,2013-07-18 12:01:00,
2013-07-18 05:33:00,82.0,52.0,-100.00,East,79,4.0,13.0,35,0.00,,,0.00,1.000000,,2013-07-18 12:33:00,
2013-07-18 05:42:00,82.0,52.0,-100.00,East,79,4.0,13.0,35,0.00,,,0.00,1.000000,,2013-07-18 12:42:00,
2013-07-18 05:52:00,82.0,52.0,-100.00,East,79,4.0,13.0,35,0.00,,,0.00,1.000000,,2013-07-18 12:52:00,
2013-07-18 06:01:00,82.0,52.0,-100.00,East,79,4.0,13.0,35,0.00,,,0.00,1.000000,,2013-07-18 13:01:00,
2013-07-18 06:33:00,82.0,51.0,-100.00,ENE,57,6.0,14.0,34,0.00,,,0.00,10.000000,,2013-07-18 13:33:00,
2013-07-18 06:43:00,82.0,51.0,-100.00,ENE,57,6.0,14.0,34,0.00,,,0.00,10.000000,,2013-07-18 13:43:00,
2013-07-18 06:53:00,82.0,51.0,-100.00,ENE,57,6.0,14.0,34,0.00,,,0.00,10.000000,,2013-07-18 13:53:00,
2013-07-18 07:02:00,82.0,51.0,-100.00,ENE,57,6.0,14.0,34,0.00,,,0.00,10.000000,,2013-07-18 14:02:00,
2013-07-18 07:33:00,85.0,52.0,-100.00,ENE,58,12.0,27.0,32,0.00,,,0.00,173.000000,,2013-07-18 14:33:00,
2013-07-18 07:43:00,85.0,52.0,-100.00,ENE,58,12.0,27.0,32,0.00,,,0.00,173.000000,,2013-07-18 14:43:00,
2013-07-18 07:53:00,85.0,52.0,-100.00,ENE,58,12.0,27.0,32,0.00,,,0.00,173.000000,,2013-07-18 14:53:00,
2013-07-18 08:01:00,85.0,52.0,-100.00,ENE,58,12.0,27.0,32,0.00,,,0.00,173.000000,,2013-07-18 15:01:00,
2013-07-18 08:43:00,86.0,54.0,-100.00,NE,55,13.0,24.0,34,0.00,,,0.00,146.000000,,2013-07-18 15:43:00,
2013-07-18 08:53:00,86.0,54.0,-100.00,NE,55,13.0,24.0,34,0.00,,,0.00,146.000000,,2013-07-18 15:53:00,
2013-07-18 09:01:00,86.0,54.0,-100.00,NE,55,13.0,24.0,34,0.00,,,0.00,146.000000,,2013-07-18 16:01:00,
2013-07-18 09:32:00,86.0,52.0,-100.00,ENE,61,9.0,23.0,31,0.00,,,0.00,402.000000,,2013-07-18 16:32:00,
2013-07-18 09:42:00,86.0,52.0,-100.00,ENE,61,9.0,23.0,31,0.00,,,0.00,402.000000,,2013-07-18 16:42:00,
2013-07-18 09:52:00,86.0,52.0,-100.00,ENE,61,9.0,23.0,31,0.00,,,0.00,402.000000,,2013-07-18 16:52:00,
2013-07-18 10:01:00,86.0,52.0,-100.00,ENE,61,9.0,23.0,31,0.00,,,0.00,402.000000,,2013-07-18 17:01:00,
2013-07-18 10:43:00,88.0,55.0,-100.00,East,80,9.0,17.0,33,0.00,,,0.00,282.000000,,2013-07-18 17:43:00,
2013-07-18 10:52:00,88.0,55.0,-100.00,East,80,9.0,17.0,33,0.00,,,0.00,282.000000,,2013-07-18 17:52:00,
2013-07-18 11:01:00,88.0,55.0,-100.00,East,80,9.0,17.0,33,0.00,,,0.00,282.000000,,2013-07-18 18:01:00,
2013-07-18 11:32:00,90.0,55.0,-100.00,East,79,12.0,22.0,31,0.00,,,0.00,642.000000,,2013-07-18 18:32:00,
2013-07-18 11:43:00,90.0,55.0,-100.00,East,79,12.0,22.0,31,0.00,,,0.00,642.000000,,2013-07-18 18:43:00,
2013-07-18 11:52:00,90.0,55.0,-100.00,East,79,12.0,22.0,31,0.00,,,0.00,642.000000,,2013-07-18 18:52:00,
2013-07-18 12:01:00,90.0,55.0,-100.00,East,79,12.0,22.0,31,0.00,,,0.00,642.000000,,2013-07-18 19:01:00,
2013-07-18 12:43:00,92.0,56.0,-100.00,ESE,105,12.0,20.0,30,0.00,,,0.00,799.000000,,2013-07-18 19:43:00,
2013-07-18 12:53:00,92.0,56.0,-100.00,ESE,105,12.0,20.0,30,0.00,,,0.00,799.000000,,2013-07-18 19:53:00,
2013-07-18 13:01:00,92.0,56.0,-100.00,ESE,105,12.0,20.0,30,0.00,,,0.00,799.000000,,2013-07-18 20:01:00,
2013-07-18 13:43:00,94.0,59.0,-100.00,East,98,12.0,25.0,31,0.00,,,0.00,716.000000,,2013-07-18 20:43:00,
2013-07-18 13:52:00,94.0,59.0,-100.00,East,98,12.0,25.0,31,0.00,,,0.00,716.000000,,2013-07-18 20:52:00,
2013-07-18 14:01:00,94.0,59.0,-100.00,East,98,12.0,25.0,31,0.00,,,0.00,716.000000,,2013-07-18 21:01:00,
2013-07-18 14:32:00,94.0,55.0,-100.00,East,83,8.0,19.0,27,0.00,,,0.00,526.000000,,2013-07-18 21:32:00,
2013-07-18 14:43:00,94.0,55.0,-100.00,East,83,8.0,19.0,27,0.00,,,0.00,526.000000,,2013-07-18 21:43:00,
2013-07-18 14:52:00,94.0,55.0,-100.00,East,83,8.0,19.0,27,0.00,,,0.00,526.000000,,2013-07-18 21:52:00,
2013-07-18 15:01:00,94.0,55.0,-100.00,East,83,8.0,19.0,27,0.00,,,0.00,526.000000,,2013-07-18 22:01:00,
2013-07-18 15:43:00,97.0,56.0,-100.00,ESE,115,13.0,21.0,26,0.00,,,0.00,866.000000,,2013-07-18 22:43:00,
2013-07-18 15:53:00,97.0,56.0,-100.00,ESE,115,13.0,21.0,26,0.00,,,0.00,866.000000,,2013-07-18 22:53:00,
2013-07-18 16:01:00,97.0,56.0,-100.00,ESE,115,13.0,21.0,26,0.00,,,0.00,866.000000,,2013-07-18 23:01:00,
2013-07-18 16:32:00,98.0,55.0,-100.00,ESE,103,11.0,22.0,24,0.00,,,0.00,733.000000,,2013-07-18 23:32:00,
2013-07-18 16:42:00,98.0,55.0,-100.00,ESE,103,11.0,22.0,24,0.00,,,0.00,733.000000,,2013-07-18 23:42:00,
2013-07-18 16:52:00,98.0,55.0,-100.00,ESE,103,11.0,22.0,24,0.00,,,0.00,733.000000,,2013-07-18 23:52:00,
2013-07-18 17:01:00,98.0,55.0,-100.00,ESE,103,11.0,22.0,24,0.00,,,0.00,733.000000,,2013-07-19 00:01:00,
2013-07-18 17:43:00,96.0,54.0,-100.00,ESE,105,11.0,24.0,25,0.00,,,0.00,575.000000,,2013-07-19 00:43:00,
2013-07-18 17:52:00,96.0,54.0,-100.00,ESE,105,11.0,24.0,25,0.00,,,0.00,575.000000,,2013-07-19 00:52:00,
2013-07-18 18:01:00,96.0,54.0,-100.00,ESE,105,11.0,24.0,25,0.00,,,0.00,575.000000,,2013-07-19 01:01:00,
2013-07-18 18:32:00,92.0,55.0,-100.00,East,83,10.0,20.0,29,0.00,,,0.00,302.000000,,2013-07-19 01:32:00,
2013-07-18 18:42:00,92.0,55.0,-100.00,East,83,10.0,20.0,29,0.00,,,0.00,302.000000,,2013-07-19 01:42:00,
2013-07-18 18:52:00,92.0,55.0,-100.00,East,83,10.0,20.0,29,0.00,,,0.00,302.000000,,2013-07-19 01:52:00,
2013-07-18 19:01:00,92.0,55.0,-100.00,East,83,10.0,20.0,29,0.00,,,0.00,302.000000,,2013-07-19 02:01:00,
2013-07-18 19:32:00,88.0,55.0,-100.00,ENE,68,7.0,21.0,33,0.00,,,0.00,45.000000,,2013-07-19 02:32:00,
2013-07-18 19:42:00,88.0,55.0,-100.00,ENE,68,7.0,21.0,33,0.00,,,0.00,45.000000,,2013-07-19 02:42:00,
2013-07-18 19:52:00,88.0,55.0,-100.00,ENE,68,7.0,21.0,33,0.00,,,0.00,45.000000,,2013-07-19 02:52:00,
2013-07-18 20:01:00,88.0,55.0,-100.00,ENE,68,7.0,21.0,33,0.00,,,0.00,45.000000,,2013-07-19 03:01:00,
2013-07-18 20:32:00,87.0,56.0,-100.00,East,93,8.0,16.0,35,0.00,,,0.00,4.000000,,2013-07-19 03:32:00,
2013-07-18 20:43:00,87.0,56.0,-100.00,East,93,8.0,16.0,35,0.00,,,0.00,4.000000,,2013-07-19 03:43:00,
2013-07-18 20:52:00,87.0,56.0,-100.00,East,93,8.0,16.0,35,0.00,,,0.00,4.000000,,2013-07-19 03:52:00,
2013-07-18 21:02:00,87.0,56.0,-100.00,East,93,8.0,16.0,35,0.00,,,0.00,4.000000,,2013-07-19 04:02:00,
2013-07-18 21:44:00,86.0,57.0,-100.00,East,84,6.0,13.0,37,0.00,,,0.00,1.000000,,2013-07-19 04:44:00,
2013-07-18 21:52:00,86.0,57.0,-100.00,East,84,6.0,13.0,37,0.00,,,0.00,1.000000,,2013-07-19 04:52:00,
2013-07-18 22:02:00,86.0,57.0,-100.00,East,84,6.0,13.0,37,0.00,,,0.00,1.000000,,2013-07-19 05:02:00,
2013-07-18 22:32:00,85.0,58.0,-100.00,ENE,71,5.0,18.0,40,0.00,,,0.00,1.000000,,2013-07-19 05:32:00,
2013-07-18 22:43:00,85.0,58.0,-100.00,ENE,71,5.0,18.0,40,0.00,,,0.00,1.000000,,2013-07-19 05:43:00,
2013-07-18 22:53:00,85.0,58.0,-100.00,ENE,71,5.0,18.0,40,0.00,,,0.00,1.000000,,2013-07-19 05:53:00,
2013-07-18 23:01:00,85.0,58.0,-100.00,ENE,71,5.0,18.0,40,0.00,,,0.00,1.000000,,2013-07-19 06:01:00,
2013-07-18 23:43:00,86.0,54.0,-100.00,East,89,6.0,17.0,33,0.00,,,0.00,1.000000,,2013-07-19 06:43:00,
2013-07-18 23:52:00,86.0,54.0,-100.00,East,89,6.0,17.0,33,0.00,,,0.00,1.000000,,2013-07-19 06:52:00,